Aviation Digital Data Service (ADDS)

Output produced by METARs form (1033 UTC 18 October 2018)
found at http://www.aviationweather.gov/metar/data/
 
FCBB 181000Z VRB02KT 8000 BKN016 BKN040 26/21 Q1015 NOSIG
TAF FCBB 180500Z 1806/1912 21002KT 9999 BKN020 
     BECMG 1809/1811 VRB04KT SCT020 FEW030CB 
     PROB40 
     TEMPO 1812/1815 4000 TSRA 
     BECMG 1816/1817 23004KT FEW020
       
FCPP 181000Z 25006KT 210V270 9999 BKN010 OVC023 26/24 Q1012 NOSIG
TAF FCPP 180500Z 1806/1906 21006KT 6000 SCT010 OVC020 
     PROB40 
     TEMPO 1812/1815 VRB10KT 7000 -TSRA BKN023 FEW030CB 
     BECMG 1816/1817 8000 SCT020